Anaheim, CA

11:40 AM PDT on March 31, 2015 (GMT -0700)
EUCLID/LAPALMA | | Change Station
CLOSE
Current Station
Personal Weather Station
Location: Anaheim, CA
Elevation: 128 ft
Nearby Weather Stations

Elev 128 ft 33.85 °N, 117.95 °W | Updated 2 seconds ago

Clear
Clear
70.6 °F
Feels Like 76 °F
N
0.0
Wind Variable Wind from WSW
Gusts 3.0 mph

Today
High -- | Low -- °F
--% Chance of Precip.
Yesterday
High -- | Low -- °F
Precip. -- in
6:40 AM 7:11 PM
Waxing Gibbous, 88% visible
Pressure 30.02 in
Visibility 7.0 miles
Clouds Clear
Heat Index 76 °F
Dew Point 56 °F
Humidity 60%
Rainfall 0.00 in
Snow Depth Not available.
UV 7 out of 12
Pollen 8.90 out of 12
Air Quality Not available.
Flu Activity Not available.
METAR KFUL 311753Z 00000KT 7SM CLR 20/12 A3002 RMK AO2 SLP165 T02000122 10200 20150 51010

More Conditions Fewer Conditions

Pressure 30.02 in
Visibility 7.0 miles
Clouds Clear
Heat Index 76 °F
Dew Point 56 °F
Humidity 60%
Rainfall 0.00 in
Snow Depth Not available.
UV 7 out of 12
Pollen 8.90 out of 12
Air Quality Not available.
Flu Activity Not available.
METAR KFUL 311753Z 00000KT 7SM CLR 20/12 A3002 RMK AO2 SLP165 T02000122 10200 20150 51010

More Conditions Fewer Conditions

10-Day Weather Forecast

Almanac

Astronomy

Mar. 31, 2015 Rise Set
Actual Time
Civil Twilight
Nautical Twilight
Astronomical Twilight
Moon
Length of Visible Light
Length of Day
Tomorrow will be .
, % of the Moon is Illuminated

Today's Extremes

State Highs State Lows

Community

WunderPhotos

Upload Photos

1,809,792 photos uploaded!

WunderBlogs® & News

Nearby

Air Quality

  Air Quality AQ Index Pollutant
Not available.

Snow Depth

Station Depth Elevation

Earthquake Activity

City Distance Mag. Time & Date
Minimum magnitude displayed is 2.5.

Coastal Water Temperatures

Place Temperature

Stations

Nearby Weather Stations

Station Location Temp. Windchill Dew Point Humidity Wind Precip. Elev Updated Type